createdAt,value
2023-02-09T00:01:28.897Z,6.07
2023-02-09T00:03:56.657Z,8.65
2023-02-09T00:06:25.037Z,6.28
2023-02-09T00:08:53.856Z,7.10
2023-02-09T00:11:45.270Z,6.75
2023-02-09T00:14:12.438Z,7.53
2023-02-09T00:16:40.468Z,8.23
2023-02-09T00:19:08.122Z,8.68
2023-02-09T00:21:35.645Z,9.15
2023-02-09T00:24:03.167Z,8.52
2023-02-09T00:26:32.141Z,8.88
2023-02-09T00:28:59.749Z,8.00
2023-02-09T00:31:27.747Z,8.35
2023-02-09T00:33:55.282Z,8.55
2023-02-09T00:36:22.816Z,8.48
2023-02-09T00:38:50.332Z,8.00
2023-02-09T00:41:18.361Z,9.05
2023-02-09T00:43:47.209Z,6.90
2023-02-09T00:46:14.716Z,7.68
2023-02-09T00:48:42.212Z,8.15
2023-02-09T00:51:09.722Z,8.15
2023-02-09T00:53:37.214Z,8.73
2023-02-09T00:56:05.097Z,10.40
2023-02-09T00:58:32.572Z,9.43
2023-02-09T01:01:01.449Z,8.50
2023-02-09T01:03:28.990Z,9.13
2023-02-09T01:05:59.777Z,8.20
2023-02-09T01:08:27.314Z,8.32
2023-02-09T01:10:54.905Z,8.10
2023-02-09T01:13:22.455Z,9.15
2023-02-09T01:15:49.994Z,8.95
2023-02-09T01:18:18.932Z,8.75
2023-02-09T01:20:46.713Z,8.13
2023-02-09T01:23:14.407Z,10.52
2023-02-09T01:25:41.967Z,9.00
2023-02-09T01:28:09.545Z,9.43
2023-02-09T01:30:37.116Z,8.47
2023-02-09T01:33:04.675Z,9.30
2023-02-09T01:35:33.515Z,9.30
2023-02-09T01:38:01.028Z,9.87
2023-02-09T01:40:28.525Z,9.20
2023-02-09T01:42:55.987Z,9.13
2023-02-09T01:45:28.997Z,8.95
2023-02-09T01:48:00.023Z,8.80
2023-02-09T01:50:28.830Z,10.60
2023-02-09T01:52:57.791Z,9.55
2023-02-09T01:55:27.080Z,8.80
2023-02-09T01:57:57.427Z,9.95
2023-02-09T02:00:25.724Z,11.10
2023-02-09T02:02:55.854Z,9.27
2023-02-09T02:05:23.819Z,9.93
2023-02-09T02:07:57.882Z,9.75
2023-02-09T02:10:25.814Z,9.70
2023-02-09T02:12:54.381Z,8.47
2023-02-09T02:15:23.202Z,10.45
2023-02-09T02:18:03.440Z,10.80
2023-02-09T02:21:00.258Z,9.95
2023-02-09T02:23:31.810Z,9.57
2023-02-09T02:26:36.568Z,9.15
2023-02-09T02:29:30.717Z,8.30
2023-02-09T02:32:07.162Z,9.63
2023-02-09T02:34:43.473Z,8.27
2023-02-09T02:37:17.422Z,9.18
2023-02-09T02:39:51.775Z,9.43
2023-02-09T02:42:41.023Z,8.88
2023-02-09T02:45:13.326Z,10.40
2023-02-09T02:47:43.692Z,7.43
2023-02-09T02:50:13.678Z,9.02
2023-02-09T02:52:43.713Z,8.45
2023-02-09T02:55:15.188Z,9.77
2023-02-09T02:57:44.599Z,8.70
2023-02-09T03:00:14.894Z,8.85
2023-02-09T03:02:45.294Z,9.48
2023-02-09T03:05:12.912Z,8.65
2023-02-09T03:07:40.395Z,7.78
2023-02-09T03:10:26.851Z,9.18
2023-02-09T03:13:02.778Z,9.10
2023-02-09T03:15:34.281Z,9.55
2023-02-09T03:18:15.351Z,9.27
2023-02-09T03:20:45.004Z,8.77
2023-02-09T03:23:17.186Z,10.38
2023-02-09T03:25:46.625Z,8.65
2023-02-09T03:28:18.219Z,8.75
2023-02-09T03:30:49.656Z,10.30
2023-02-09T03:33:23.090Z,9.40
2023-02-09T03:35:53.267Z,9.63
2023-02-09T03:38:20.735Z,9.30
2023-02-09T03:40:48.505Z,7.72
2023-02-09T03:43:16.000Z,8.50
2023-02-09T03:45:43.515Z,8.80
2023-02-09T03:48:10.980Z,10.18
2023-02-09T03:50:39.800Z,9.75
2023-02-09T03:53:07.295Z,9.73
2023-02-09T03:55:35.768Z,8.85
2023-02-09T03:58:03.833Z,9.00
2023-02-09T04:00:31.474Z,9.30
2023-02-09T04:02:59.231Z,9.30
2023-02-09T04:05:26.757Z,9.73
2023-02-09T04:07:55.598Z,10.48
2023-02-09T04:10:23.139Z,11.10
2023-02-09T04:12:50.659Z,9.88
2023-02-09T04:15:18.208Z,10.45
2023-02-09T04:17:45.717Z,9.32
2023-02-09T04:20:13.212Z,9.63
2023-02-09T04:22:40.910Z,9.75
2023-02-09T04:25:09.861Z,9.77
2023-02-09T04:27:37.363Z,10.38
2023-02-09T04:30:05.270Z,9.10
2023-02-09T04:32:32.763Z,10.35
2023-02-09T04:35:00.226Z,8.20
2023-02-09T04:37:27.887Z,9.45
2023-02-09T04:39:55.672Z,10.55
2023-02-09T04:42:24.758Z,8.38
2023-02-09T04:44:52.330Z,9.60
2023-02-09T04:47:19.824Z,9.18
2023-02-09T04:49:47.288Z,9.20
2023-02-09T04:52:14.826Z,9.05
2023-02-09T04:54:42.300Z,8.68
2023-02-09T04:57:27.790Z,8.55
2023-02-09T04:59:56.893Z,8.85
2023-02-09T05:02:24.387Z,8.52
2023-02-09T05:04:51.863Z,9.48
2023-02-09T05:07:19.398Z,8.27
2023-02-09T05:09:46.931Z,9.85
2023-02-09T05:12:14.456Z,9.27
2023-02-09T05:14:41.953Z,10.05
2023-02-09T05:17:10.831Z,8.88
2023-02-09T05:19:38.304Z,10.40
2023-02-09T05:22:05.827Z,9.15
2023-02-09T05:24:33.350Z,10.35
2023-02-09T05:27:00.843Z,9.70
2023-02-09T05:29:28.562Z,10.65
2023-02-09T05:31:56.099Z,9.10
2023-02-09T05:34:25.029Z,10.13
2023-02-09T05:36:52.506Z,10.70
2023-02-09T05:39:20.174Z,10.00
2023-02-09T05:42:05.511Z,9.07
2023-02-09T05:44:33.028Z,8.52
2023-02-09T05:47:00.500Z,7.53
2023-02-09T05:49:29.285Z,7.57
2023-02-09T05:51:56.779Z,8.15
2023-02-09T05:54:24.257Z,10.10
2023-02-09T05:56:51.768Z,9.30
2023-02-09T05:59:19.462Z,8.82
2023-02-09T06:01:47.159Z,9.40
2023-02-09T06:04:14.736Z,9.98
2023-02-09T06:06:43.854Z,8.50
2023-02-09T06:09:11.393Z,9.20
2023-02-09T06:11:38.855Z,8.85
2023-02-09T06:14:06.549Z,10.20
2023-02-09T06:16:34.108Z,8.82
2023-02-09T06:19:01.605Z,10.10
2023-02-09T06:21:29.328Z,10.25
2023-02-09T06:23:58.229Z,8.20
2023-02-09T06:26:25.804Z,9.15
2023-02-09T06:28:53.337Z,10.07
2023-02-09T06:31:20.938Z,9.45
2023-02-09T06:33:48.524Z,10.95
2023-02-09T06:36:16.046Z,10.15
2023-02-09T06:38:43.542Z,10.68
2023-02-09T06:41:12.402Z,9.45
2023-02-09T06:43:39.913Z,10.77
2023-02-09T06:46:08.072Z,11.43
2023-02-09T06:48:35.755Z,9.40
2023-02-09T06:51:03.228Z,11.63
2023-02-09T06:53:30.938Z,16.60
2023-02-09T06:56:01.282Z,16.90
2023-02-09T06:58:30.156Z,17.17
2023-02-09T07:01:02.916Z,12.13
2023-02-09T07:03:30.859Z,11.52
2023-02-09T07:06:04.024Z,9.85
2023-02-09T07:08:31.574Z,11.15
2023-02-09T07:11:02.581Z,10.68
2023-02-09T07:13:31.835Z,10.02
2023-02-09T07:16:08.561Z,11.85
2023-02-09T07:18:36.324Z,9.80
2023-02-09T07:21:05.650Z,11.43
2023-02-09T07:23:33.308Z,9.82
2023-02-09T07:26:03.331Z,10.13
2023-02-09T07:28:32.897Z,10.27
2023-02-09T07:31:04.449Z,10.02
2023-02-09T07:33:32.297Z,13.55
2023-02-09T07:35:59.890Z,11.32
2023-02-09T07:38:27.579Z,10.38
2023-02-09T07:40:55.110Z,10.90
2023-02-09T07:43:22.593Z,11.43
2023-02-09T07:45:51.555Z,12.02
2023-02-09T07:48:19.095Z,11.27
2023-02-09T07:50:49.886Z,11.07
2023-02-09T07:53:17.483Z,11.10
2023-02-09T07:55:45.250Z,12.85
2023-02-09T07:58:12.908Z,10.38
2023-02-09T08:00:40.380Z,10.98
2023-02-09T08:03:09.305Z,11.48
2023-02-09T08:05:42.424Z,11.05
2023-02-09T08:08:09.945Z,10.20
2023-02-09T08:10:37.746Z,12.70
2023-02-09T08:13:05.407Z,11.57
2023-02-09T08:15:38.864Z,12.25
2023-02-09T08:18:12.905Z,12.07
2023-02-09T08:20:40.855Z,12.00
2023-02-09T08:23:10.549Z,12.70
2023-02-09T08:25:38.276Z,12.68
2023-02-09T08:28:06.415Z,12.82
2023-02-09T08:30:34.943Z,14.70
2023-02-09T08:33:02.881Z,14.43
2023-02-09T08:35:31.912Z,14.57
2023-02-09T08:38:03.428Z,15.52
2023-02-09T08:40:31.340Z,13.25
2023-02-09T08:42:58.836Z,13.68
2023-02-09T08:45:26.404Z,13.50
2023-02-09T08:47:53.904Z,13.70
2023-02-09T08:50:21.397Z,11.55
2023-02-09T08:52:51.255Z,13.07
2023-02-09T08:55:18.780Z,13.88
2023-02-09T08:57:46.292Z,14.45
2023-02-09T09:00:15.173Z,11.98
2023-02-09T09:02:42.783Z,12.25
2023-02-09T09:05:10.381Z,14.18
2023-02-09T09:07:37.932Z,13.27
2023-02-09T09:10:09.197Z,13.43
2023-02-09T09:12:36.975Z,14.70
2023-02-09T09:15:04.949Z,13.60
2023-02-09T09:17:32.481Z,11.73
2023-02-09T09:20:00.004Z,14.55
2023-02-09T09:22:27.541Z,13.35
2023-02-09T09:24:55.406Z,12.13
2023-02-09T09:27:26.855Z,12.18
2023-02-09T09:29:54.571Z,13.43
2023-02-09T09:32:24.582Z,12.18
2023-02-09T09:34:54.059Z,13.00
2023-02-09T09:37:21.673Z,11.50
2023-02-09T09:39:49.877Z,12.93
2023-02-09T09:42:25.426Z,11.90
2023-02-09T09:44:53.478Z,12.82
2023-02-09T09:47:23.601Z,12.18
2023-02-09T09:49:51.133Z,13.10
2023-02-09T09:52:30.286Z,14.20
2023-02-09T09:54:58.372Z,12.18
2023-02-09T09:57:29.494Z,11.68
2023-02-09T09:59:57.860Z,12.07
2023-02-09T10:02:28.193Z,13.00
2023-02-09T10:04:57.425Z,11.18
2023-02-09T10:07:31.501Z,10.63
2023-02-09T10:10:03.034Z,10.23
2023-02-09T10:12:37.356Z,10.13
2023-02-09T10:15:18.999Z,12.27
2023-02-09T10:17:46.519Z,9.70
2023-02-09T10:20:14.518Z,11.20
2023-02-09T10:22:44.914Z,11.57
2023-02-09T10:25:38.815Z,12.43
2023-02-09T10:28:19.777Z,12.20
2023-02-09T10:30:48.016Z,11.50
2023-02-09T10:33:16.085Z,12.97
2023-02-09T10:35:46.293Z,13.07
2023-02-09T10:38:17.442Z,12.00
2023-02-09T10:40:47.448Z,10.73
2023-02-09T10:43:23.240Z,11.23
2023-02-09T10:45:54.878Z,12.50
2023-02-09T10:48:23.128Z,12.37
2023-02-09T10:50:52.923Z,11.47
2023-02-09T10:53:23.928Z,12.23
2023-02-09T10:55:52.343Z,12.80
2023-02-09T10:58:26.841Z,12.23
2023-02-09T11:01:00.902Z,12.63
2023-02-09T11:03:29.162Z,10.70
2023-02-09T11:06:02.776Z,11.90
2023-02-09T11:08:38.899Z,11.43
2023-02-09T11:11:09.045Z,12.47
2023-02-09T11:13:37.975Z,12.40
2023-02-09T11:16:21.567Z,12.73
2023-02-09T11:18:54.721Z,13.53
2023-02-09T11:21:30.435Z,13.87
2023-02-09T11:24:01.845Z,11.57
2023-02-09T11:26:37.374Z,11.60
2023-02-09T11:29:11.381Z,13.07
2023-02-09T11:31:48.135Z,13.17
2023-02-09T11:34:28.989Z,11.07
2023-02-09T11:37:02.011Z,11.83
2023-02-09T11:39:38.435Z,11.73
2023-02-09T11:42:25.824Z,11.50
2023-02-09T11:44:57.404Z,10.40
2023-02-09T11:47:29.498Z,11.53
2023-02-09T11:50:00.467Z,11.17
2023-02-09T11:52:31.334Z,12.47
2023-02-09T11:55:01.965Z,12.83
2023-02-09T11:57:34.743Z,11.50
2023-02-09T12:00:06.688Z,12.30
2023-02-09T12:02:46.092Z,11.40
2023-02-09T12:05:17.829Z,12.20
2023-02-09T12:07:56.158Z,12.00
2023-02-09T12:10:28.606Z,11.13
2023-02-09T12:13:00.009Z,11.73
2023-02-09T12:15:31.827Z,12.43
2023-02-09T12:18:02.107Z,12.20
2023-02-09T12:20:31.544Z,11.20
2023-02-09T12:23:02.108Z,13.43
2023-02-09T12:25:51.424Z,11.73
2023-02-09T12:28:40.330Z,11.47
2023-02-09T12:31:21.803Z,12.13
2023-02-09T12:34:10.719Z,12.70
2023-02-09T12:36:38.345Z,12.37
2023-02-09T12:39:24.185Z,13.00
2023-02-09T12:42:37.522Z,12.80
2023-02-09T12:45:31.652Z,12.23
2023-02-09T12:48:01.881Z,12.63
2023-02-09T12:50:36.760Z,12.23
2023-02-09T12:53:34.492Z,12.20
2023-02-09T12:56:04.795Z,12.40
2023-02-09T12:58:37.130Z,11.73
2023-02-09T13:01:04.804Z,12.27
2023-02-09T13:03:41.769Z,12.53
2023-02-09T13:06:24.059Z,13.73
2023-02-09T13:08:54.480Z,11.83
2023-02-09T13:11:30.542Z,11.20
2023-02-09T13:13:59.497Z,10.93
2023-02-09T13:16:38.264Z,12.77
2023-02-09T13:19:16.077Z,12.93
2023-02-09T13:21:53.214Z,12.30
2023-02-09T13:24:23.700Z,11.40
2023-02-09T13:26:52.752Z,11.50
2023-02-09T13:29:22.470Z,14.33
2023-02-09T13:31:58.048Z,12.90
2023-02-09T13:34:32.465Z,11.20
2023-02-09T13:37:07.683Z,13.17
2023-02-09T13:39:38.269Z,11.40
2023-02-09T13:42:19.767Z,12.50
2023-02-09T13:44:48.956Z,11.47
2023-02-09T13:47:17.106Z,11.60
2023-02-09T13:49:56.497Z,12.60
2023-02-09T13:52:26.617Z,12.40
2023-02-09T13:54:54.901Z,13.37
2023-02-09T13:57:31.975Z,13.07
2023-02-09T14:00:06.139Z,13.87
2023-02-09T14:02:36.123Z,14.20
2023-02-09T14:05:06.806Z,12.23
2023-02-09T14:07:36.194Z,14.90
2023-02-09T14:10:06.653Z,14.47
2023-02-09T14:12:55.581Z,10.93
2023-02-09T14:15:45.517Z,13.17
2023-02-09T14:18:41.484Z,11.17
2023-02-09T14:21:27.583Z,12.57
2023-02-09T14:24:21.027Z,12.50
2023-02-09T14:26:54.525Z,11.97
2023-02-09T14:29:27.680Z,12.87
2023-02-09T14:31:57.155Z,11.90
2023-02-09T14:34:29.487Z,12.77
2023-02-09T14:37:00.321Z,12.50
2023-02-09T14:39:31.073Z,14.07
2023-02-09T14:42:01.464Z,11.73
2023-02-09T14:44:29.632Z,13.47
2023-02-09T14:46:58.744Z,12.30
2023-02-09T14:49:26.993Z,12.30
2023-02-09T14:52:05.861Z,13.90
2023-02-09T14:54:35.736Z,11.77
2023-02-09T14:57:03.805Z,11.93
2023-02-09T14:59:31.764Z,12.20
2023-02-09T15:01:59.306Z,11.83
2023-02-09T15:04:26.989Z,12.67
2023-02-09T15:07:01.261Z,11.23
2023-02-09T15:09:35.245Z,13.47
2023-02-09T15:12:06.369Z,11.87
2023-02-09T15:14:36.882Z,11.90
2023-02-09T15:17:14.513Z,11.47
2023-02-09T15:19:42.487Z,11.43
2023-02-09T15:22:13.504Z,12.60
2023-02-09T15:24:42.689Z,13.03
2023-02-09T15:27:15.091Z,11.73
2023-02-09T15:29:42.635Z,12.37
2023-02-09T15:32:14.731Z,11.73
2023-02-09T15:34:42.430Z,13.40
2023-02-09T15:37:17.233Z,13.40
2023-02-09T15:39:46.212Z,11.50
2023-02-09T15:42:33.791Z,11.87
2023-02-09T15:45:35.705Z,12.70
2023-02-09T15:48:03.527Z,10.87
2023-02-09T15:50:32.829Z,11.07
2023-02-09T15:53:00.423Z,11.67
2023-02-09T15:55:29.564Z,11.73
2023-02-09T15:57:57.479Z,12.00
2023-02-09T16:00:27.049Z,11.60
2023-02-09T16:02:55.199Z,11.70
2023-02-09T16:05:23.736Z,12.23
2023-02-09T16:07:52.137Z,12.07
2023-02-09T16:10:22.981Z,11.67
2023-02-09T16:12:52.343Z,13.37
2023-02-09T16:15:21.809Z,11.77
2023-02-09T16:17:49.835Z,13.60
2023-02-09T16:20:17.800Z,12.47
2023-02-09T16:22:47.232Z,12.83
2023-02-09T16:25:19.991Z,14.07
2023-02-09T16:27:47.539Z,13.07
2023-02-09T16:30:21.956Z,12.43
2023-02-09T16:32:49.785Z,13.17
2023-02-09T16:35:18.227Z,11.67
2023-02-09T16:37:47.989Z,13.50
2023-02-09T16:40:23.329Z,11.67
2023-02-09T16:42:51.128Z,12.57
2023-02-09T16:45:23.328Z,12.70
2023-02-09T16:47:54.851Z,12.40
2023-02-09T16:50:24.908Z,13.93
2023-02-09T16:52:53.806Z,13.27
2023-02-09T16:55:25.120Z,13.90
2023-02-09T16:57:54.756Z,14.07
2023-02-09T17:00:25.369Z,14.83
2023-02-09T17:02:54.874Z,13.27
2023-02-09T17:05:25.854Z,13.63
2023-02-09T17:07:55.551Z,13.03
2023-02-09T17:10:25.740Z,12.97
2023-02-09T17:12:53.868Z,12.57
2023-02-09T17:15:30.728Z,11.67
2023-02-09T17:18:02.461Z,12.07
2023-02-09T17:20:34.466Z,13.47
2023-02-09T17:23:01.998Z,10.97
2023-02-09T17:25:29.592Z,12.30
2023-02-09T17:27:57.182Z,13.53
2023-02-09T17:30:26.065Z,13.87
2023-02-09T17:32:59.408Z,13.03
2023-02-09T17:35:52.930Z,11.47
2023-02-09T17:38:21.219Z,11.50
2023-02-09T17:40:48.794Z,12.83
2023-02-09T17:43:16.234Z,10.87
2023-02-09T17:45:48.911Z,13.23
2023-02-09T17:48:17.358Z,12.20
2023-02-09T17:50:46.333Z,13.17
2023-02-09T17:53:16.249Z,12.33
2023-02-09T17:55:45.024Z,13.03
2023-02-09T17:58:14.249Z,14.63
2023-02-09T18:00:42.673Z,13.70
2023-02-09T18:03:16.793Z,14.13
2023-02-09T18:05:45.375Z,13.03
2023-02-09T18:08:16.612Z,13.48
2023-02-09T18:10:44.283Z,11.13
2023-02-09T18:13:17.236Z,10.50
2023-02-09T18:15:45.369Z,11.50
2023-02-09T18:18:14.674Z,11.67
2023-02-09T18:20:43.761Z,12.60
2023-02-09T18:23:14.252Z,11.80
2023-02-09T18:25:46.275Z,12.07
2023-02-09T18:28:16.233Z,12.30
2023-02-09T18:30:46.957Z,12.50
2023-02-09T18:33:18.538Z,13.47
2023-02-09T18:35:46.491Z,12.20
2023-02-09T18:38:15.648Z,11.17
2023-02-09T18:40:43.291Z,11.90
2023-02-09T18:43:14.461Z,12.13
2023-02-09T18:45:41.970Z,12.20
2023-02-09T18:48:10.105Z,11.97
2023-02-09T18:50:40.071Z,13.03
2023-02-09T18:53:07.662Z,13.43
2023-02-09T18:55:35.661Z,11.87
2023-02-09T18:58:04.911Z,13.50
2023-02-09T19:00:32.682Z,14.37
2023-02-09T19:03:00.661Z,13.07
2023-02-09T19:05:30.088Z,14.67
2023-02-09T19:07:59.564Z,13.77
2023-02-09T19:10:29.506Z,13.20
2023-02-09T19:12:58.788Z,14.30
2023-02-09T19:15:26.575Z,12.87
2023-02-09T19:17:56.729Z,13.43
2023-02-09T19:20:27.017Z,11.13
2023-02-09T19:22:55.304Z,13.43
2023-02-09T19:25:26.759Z,13.90
2023-02-09T19:27:55.065Z,11.70
2023-02-09T19:30:25.121Z,12.87
2023-02-09T19:32:54.424Z,12.70
2023-02-09T19:35:23.042Z,11.57
2023-02-09T19:37:52.207Z,11.93
2023-02-09T19:40:27.973Z,10.83
2023-02-09T19:42:57.769Z,13.60
2023-02-09T19:45:25.523Z,12.45
2023-02-09T19:47:53.366Z,13.57
2023-02-09T19:50:21.478Z,12.00
2023-02-09T19:52:50.301Z,11.77
2023-02-09T19:55:18.360Z,12.57
2023-02-09T19:57:46.375Z,11.83
2023-02-09T20:00:18.523Z,12.40
2023-02-09T20:02:46.492Z,12.10
2023-02-09T20:05:16.098Z,11.60
2023-02-09T20:07:44.279Z,11.47
2023-02-09T20:10:12.048Z,13.33
2023-02-09T20:12:39.881Z,12.67
2023-02-09T20:15:08.076Z,13.40
2023-02-09T20:17:37.236Z,11.67
2023-02-09T20:20:05.650Z,12.10
2023-02-09T20:22:36.906Z,12.40
2023-02-09T20:25:04.752Z,11.90
2023-02-09T20:27:32.448Z,14.10
2023-02-09T20:30:02.589Z,11.90
2023-02-09T20:32:30.712Z,15.40
2023-02-09T20:35:02.074Z,11.90
2023-02-09T20:37:32.361Z,12.97
2023-02-09T20:40:01.639Z,14.23
2023-02-09T20:42:46.971Z,13.90
2023-02-09T20:45:33.233Z,13.30
2023-02-09T20:48:01.271Z,11.93
2023-02-09T20:50:32.800Z,14.03
2023-02-09T20:53:01.461Z,13.03
2023-02-09T20:55:30.509Z,12.20
2023-02-09T20:57:58.315Z,14.57
2023-02-09T21:00:26.065Z,11.77
2023-02-09T21:02:53.855Z,15.13
2023-02-09T21:05:21.749Z,12.07
2023-02-09T21:07:52.139Z,11.47
2023-02-09T21:10:19.883Z,12.90
2023-02-09T21:12:47.623Z,13.20
2023-02-09T21:15:15.517Z,14.00
2023-02-09T21:17:47.799Z,12.00
2023-02-09T21:20:15.958Z,13.98
2023-02-09T21:22:43.811Z,14.20
2023-02-09T21:25:13.889Z,14.10
2023-02-09T21:27:41.712Z,14.00
2023-02-09T21:30:10.412Z,14.30
2023-02-09T21:32:38.477Z,14.60
2023-02-09T21:35:10.270Z,14.60
2023-02-09T21:37:39.179Z,14.65
2023-02-09T21:40:09.879Z,13.85
2023-02-09T21:42:39.519Z,15.35
2023-02-09T21:45:08.110Z,13.93
2023-02-09T21:47:38.464Z,13.10
2023-02-09T21:50:08.322Z,12.90
2023-02-09T21:52:36.309Z,12.93
2023-02-09T21:55:04.109Z,13.83
2023-02-09T21:57:31.930Z,14.07
2023-02-09T22:00:05.345Z,12.98
2023-02-09T22:02:33.063Z,14.63
2023-02-09T22:05:00.730Z,12.70
2023-02-09T22:07:28.853Z,12.17
2023-02-09T22:09:56.528Z,13.70
2023-02-09T22:12:24.225Z,15.60
2023-02-09T22:14:52.048Z,13.60
2023-02-09T22:17:21.074Z,12.80
2023-02-09T22:19:48.633Z,14.30
2023-02-09T22:22:16.297Z,12.57
2023-02-09T22:24:44.009Z,12.77
2023-02-09T22:27:11.638Z,14.23
2023-02-09T22:29:39.398Z,15.65
2023-02-09T22:32:07.054Z,14.05
2023-02-09T22:34:36.144Z,15.18
2023-02-09T22:37:04.280Z,13.13
2023-02-09T22:39:32.411Z,12.57
2023-02-09T22:42:00.797Z,15.40
2023-02-09T22:44:30.003Z,15.23
2023-02-09T22:46:57.897Z,13.40
2023-02-09T22:49:25.789Z,13.98
2023-02-09T22:51:54.858Z,13.23
2023-02-09T22:54:24.359Z,14.98
2023-02-09T22:56:53.566Z,14.70
2023-02-09T22:59:23.896Z,15.50
2023-02-09T23:01:53.207Z,14.68
2023-02-09T23:04:21.170Z,15.73
2023-02-09T23:06:51.566Z,15.77
2023-02-09T23:09:21.933Z,14.20
2023-02-09T23:11:49.568Z,13.73
2023-02-09T23:14:17.780Z,15.20
2023-02-09T23:16:46.457Z,14.88
2023-02-09T23:19:16.046Z,14.95
2023-02-09T23:21:45.504Z,12.48
2023-02-09T23:24:14.006Z,15.17
2023-02-09T23:26:43.371Z,16.38
2023-02-09T23:29:13.347Z,12.90
2023-02-09T23:31:42.918Z,16.25
2023-02-09T23:34:13.354Z,14.23
2023-02-09T23:36:41.138Z,14.05
2023-02-09T23:39:08.878Z,15.30
2023-02-09T23:41:39.047Z,15.35
2023-02-09T23:44:08.085Z,17.30
2023-02-09T23:46:37.474Z,16.00
2023-02-09T23:49:05.086Z,15.63
2023-02-09T23:51:34.378Z,14.80
2023-02-09T23:54:04.890Z,16.85
2023-02-09T23:56:36.810Z,15.90
2023-02-09T23:59:05.357Z,17.17
